Time;durP1;ratioP1;P1;durP2;ratioP2;P2;SDS_P1;SDS_P2;PMS_P1;PMS_P2;Temp;Humidity;BMP_temperature;BMP_pressure;BME280_temperature;BME280_humidity;BME280_pressure;Samples;Min_cycle;Max_cycle;Signal;HPM_P1;HPM_P2
2023/05/04 00:00:51;;;;;;;15.05;7.90;;;6.90;99.90;;;;;;6217120;22;20015;-83
2023/05/04 00:03:17;;;;;;;17.95;7.20;;;6.60;99.90;;;;;;6217899;22;20012;-83
2023/05/04 00:05:43;;;;;;;13.35;7.68;;;6.60;99.90;;;;;;6242094;22;20131;-82
2023/05/04 00:08:08;;;;;;;23.08;9.07;;;6.30;99.90;;;;;;6218186;22;20440;-83
2023/05/04 00:10:34;;;;;;;15.82;6.97;;;6.60;99.90;;;;;;6212225;23;20031;-84
2023/05/04 00:13:00;;;;;;;18.73;7.57;;;6.10;99.90;;;;;;6213083;23;20016;-83
2023/05/04 00:15:26;;;;;;;13.48;7.85;;;6.10;99.90;;;;;;6212094;23;20016;-84
2023/05/04 00:17:53;;;;;;;16.38;7.35;;;6.10;99.90;;;;;;6213076;23;20072;-83
2023/05/04 00:20:19;;;;;;;12.65;7.65;;;6.00;99.90;;;;;;6211423;23;20082;-83
2023/05/04 00:22:45;;;;;;;15.75;7.22;;;6.00;99.90;;;;;;6213254;23;20016;-83
2023/05/04 00:25:10;;;;;;;15.25;7.50;;;6.00;99.90;;;;;;6213053;23;20016;-83
2023/05/04 00:27:36;;;;;;;16.92;7.57;;;5.90;99.90;;;;;;6211737;23;20031;-83
2023/05/04 00:30:02;;;;;;;16.35;7.25;;;6.60;99.90;;;;;;6213449;23;20053;-83
2023/05/04 00:32:29;;;;;;;13.70;7.00;;;5.90;99.90;;;;;;6211240;23;20097;-83
2023/05/04 00:34:55;;;;;;;18.30;7.65;;;5.90;99.90;;;;;;6212428;23;20047;-83
2023/05/04 00:37:21;;;;;;;14.65;6.93;;;6.30;99.90;;;;;;6237021;23;20094;-83
2023/05/04 00:39:46;;;;;;;16.58;7.18;;;5.80;99.90;;;;;;6213140;23;20008;-83
2023/05/04 00:42:12;;;;;;;14.60;7.45;;;5.80;99.90;;;;;;6211898;23;20024;-84
2023/05/04 00:44:40;;;;;;;15.55;7.25;;;5.80;99.90;;;;;;6212343;23;20095;-83
2023/05/04 00:47:06;;;;;;;11.52;6.43;;;5.80;99.90;;;;;;6212575;23;20016;-83
2023/05/04 00:49:32;;;;;;;16.52;7.32;;;5.80;99.90;;;;;;6236492;23;20020;-84
2023/05/04 00:52:00;;;;;;;14.45;7.05;;;5.70;99.90;;;;;;6212615;23;20508;-83
2023/05/04 00:54:27;;;;;;;12.82;7.03;;;6.00;99.90;;;;;;6212487;23;20043;-84
2023/05/04 00:56:52;;;;;;;20.02;7.03;;;5.70;99.90;;;;;;6236874;23;20020;-84
2023/05/04 00:59:18;;;;;;;13.82;6.70;;;6.30;99.90;;;;;;6238072;23;20016;-83
2023/05/04 01:01:44;;;;;;;11.32;6.00;;;5.80;99.90;;;;;;6211520;23;20020;-84
2023/05/04 01:04:10;;;;;;;16.30;6.55;;;5.80;99.90;;;;;;6212004;23;20089;-84
2023/05/04 01:06:42;;;;;;;12.32;7.00;;;5.90;99.90;;;;;;6211773;23;20437;-84
2023/05/04 01:09:28;;;;;;;15.17;7.33;;;5.70;99.90;;;;;;6212531;23;20015;-83
2023/05/04 01:12:16;;;;;;;11.15;6.53;;;5.60;99.90;;;;;;6212433;23;20259;-83
2023/05/04 01:14:43;;;;;;;14.40;7.22;;;5.60;99.90;;;;;;6212631;23;20094;-83
2023/05/04 01:17:09;;;;;;;14.95;7.82;;;5.70;99.90;;;;;;6211469;23;20091;-84
2023/05/04 01:19:35;;;;;;;14.68;7.32;;;5.90;99.90;;;;;;6212575;23;20023;-83
2023/05/04 01:22:01;;;;;;;12.50;7.60;;;5.80;99.90;;;;;;6211941;23;20340;-83
2023/05/04 01:24:28;;;;;;;18.52;7.47;;;5.60;99.90;;;;;;6211669;23;20339;-83
2023/05/04 01:27:02;;;;;;;16.85;7.63;;;5.50;99.90;;;;;;6212277;23;20016;-83
2023/05/04 01:29:31;;;;;;;12.93;7.25;;;5.50;99.90;;;;;;6212274;23;20037;-84
2023/05/04 01:31:58;;;;;;;16.58;8.07;;;5.70;99.90;;;;;;6210705;23;20020;-83
2023/05/04 01:34:24;;;;;;;17.52;7.97;;;5.50;99.90;;;;;;6212134;23;20054;-83
2023/05/04 01:36:50;;;;;;;14.88;7.70;;;5.50;99.90;;;;;;6211529;23;20297;-83
2023/05/04 01:39:16;;;;;;;13.90;8.00;;;5.70;99.90;;;;;;6237024;23;20016;-83
2023/05/04 01:41:42;;;;;;;13.48;7.95;;;5.50;99.90;;;;;;6237368;23;20090;-83
2023/05/04 01:44:08;;;;;;;13.73;7.18;;;5.80;99.90;;;;;;6212178;23;20108;-83
2023/05/04 01:46:33;;;;;;;18.25;7.40;;;5.60;99.90;;;;;;6235571;23;20016;-83
2023/05/04 01:48:59;;;;;;;11.30;7.10;;;5.50;99.90;;;;;;6212009;23;20091;-84
2023/05/04 01:51:25;;;;;;;13.73;6.97;;;5.90;99.90;;;;;;6210416;23;20121;-83
2023/05/04 01:53:50;;;;;;;14.10;7.15;;;5.50;99.90;;;;;;6212896;23;20020;-83
2023/05/04 01:56:16;;;;;;;15.32;7.22;;;5.90;99.90;;;;;;6236693;23;20052;-83
2023/05/04 01:58:42;;;;;;;15.77;7.65;;;5.70;99.90;;;;;;6211424;23;20418;-83
2023/05/04 02:01:08;;;;;;;15.32;6.95;;;5.40;99.90;;;;;;6236547;23;20816;-83
2023/05/04 02:03:33;;;;;;;16.48;7.75;;;5.30;99.90;;;;;;6211933;23;20429;-83
2023/05/04 02:05:59;;;;;;;15.27;7.03;;;5.30;99.90;;;;;;6236371;23;20020;-83
2023/05/04 02:08:25;;;;;;;15.02;7.03;;;5.70;99.90;;;;;;6211396;23;20467;-83
2023/05/04 02:10:51;;;;;;;16.20;7.55;;;5.40;99.90;;;;;;6212165;23;20024;-83
2023/05/04 02:13:17;;;;;;;16.67;7.75;;;5.40;99.90;;;;;;6210746;23;20023;-84
2023/05/04 02:15:43;;;;;;;17.02;8.23;;;5.60;99.90;;;;;;6237071;23;20020;-83
2023/05/04 02:18:09;;;;;;;16.55;7.18;;;5.90;99.90;;;;;;6212945;23;20070;-84
2023/05/04 02:20:34;;;;;;;13.55;7.40;;;5.60;99.90;;;;;;6210306;23;20016;-84
2023/05/04 02:23:00;;;;;;;13.00;7.65;;;5.30;99.90;;;;;;6237923;23;20027;-83
2023/05/04 02:25:26;;;;;;;20.42;7.22;;;5.40;99.90;;;;;;6211380;23;20024;-83
2023/05/04 02:27:52;;;;;;;13.38;7.50;;;5.30;99.90;;;;;;6236556;23;20120;-83
2023/05/04 02:30:17;;;;;;;15.20;7.68;;;5.30;99.90;;;;;;6212053;23;20099;-83
2023/05/04 02:32:43;;;;;;;14.13;7.35;;;5.20;99.90;;;;;;6210932;23;20024;-83
2023/05/04 02:35:09;;;;;;;14.88;8.32;;;5.30;99.90;;;;;;6211244;23;20352;-83
2023/05/04 02:37:34;;;;;;;13.52;7.40;;;5.30;99.90;;;;;;6211363;23;20070;-84
2023/05/04 02:40:00;;;;;;;17.38;8.65;;;5.50;99.90;;;;;;6212715;23;20441;-83
2023/05/04 02:42:26;;;;;;;18.52;7.60;;;5.30;99.90;;;;;;6210806;23;20318;-83
2023/05/04 02:44:51;;;;;;;19.05;7.97;;;5.40;99.90;;;;;;6211991;23;20051;-83
2023/05/04 02:47:17;;;;;;;16.70;8.25;;;5.20;99.90;;;;;;6211301;23;20031;-83
2023/05/04 02:49:43;;;;;;;18.58;8.23;;;5.20;99.90;;;;;;6236188;23;20052;-83
2023/05/04 02:52:09;;;;;;;16.48;8.68;;;6.00;99.90;;;;;;6211956;23;20345;-83
2023/05/04 02:54:34;;;;;;;15.43;7.97;;;5.70;99.90;;;;;;6211123;23;20476;-83
2023/05/04 02:57:00;;;;;;;14.90;7.78;;;5.30;99.90;;;;;;6211795;23;20063;-84
2023/05/04 02:59:26;;;;;;;16.42;7.97;;;5.30;99.90;;;;;;6211668;23;20012;-84
2023/05/04 03:01:51;;;;;;;20.40;9.00;;;5.20;99.90;;;;;;6237116;23;20519;-84
2023/05/04 03:04:17;;;;;;;19.55;8.38;;;5.20;99.90;;;;;;6213850;23;20098;-83
2023/05/04 03:06:43;;;;;;;14.63;7.97;;;5.30;99.90;;;;;;6213020;23;20027;-83
2023/05/04 03:09:08;;;;;;;18.00;8.75;;;5.20;99.90;;;;;;6238393;23;20069;-83
2023/05/04 03:11:34;;;;;;;17.60;7.90;;;5.20;99.90;;;;;;6238185;23;20012;-82
2023/05/04 03:14:00;;;;;;;18.00;8.57;;;5.10;99.90;;;;;;6239261;23;20039;-83
2023/05/04 03:16:25;;;;;;;16.05;8.73;;;5.10;99.90;;;;;;6211386;23;20028;-83
2023/05/04 03:18:51;;;;;;;17.70;8.57;;;5.10;99.90;;;;;;6214051;23;20018;-83
2023/05/04 03:21:17;;;;;;;20.95;9.27;;;5.10;99.90;;;;;;6237789;23;20016;-83
2023/05/04 03:23:42;;;;;;;17.45;9.13;;;5.20;99.90;;;;;;6212788;23;20020;-83
2023/05/04 03:26:08;;;;;;;25.70;9.27;;;5.90;99.90;;;;;;6213737;23;20344;-83
2023/05/04 03:28:34;;;;;;;16.02;8.60;;;5.50;99.90;;;;;;6212890;23;20016;-83
2023/05/04 03:30:59;;;;;;;12.88;8.38;;;5.20;99.90;;;;;;6237573;23;20103;-83
2023/05/04 03:33:25;;;;;;;17.40;9.20;;;5.30;99.90;;;;;;6237806;23;20047;-83
2023/05/04 03:35:51;;;;;;;16.20;8.70;;;5.20;99.90;;;;;;6238413;23;20074;-83
2023/05/04 03:38:17;;;;;;;20.88;9.35;;;5.20;99.90;;;;;;6212584;23;20019;-83
2023/05/04 03:40:42;;;;;;;16.48;9.23;;;5.30;99.90;;;;;;6237932;23;20028;-83
2023/05/04 03:43:08;;;;;;;18.17;8.80;;;5.80;99.90;;;;;;6239012;23;20031;-82
2023/05/04 03:45:35;;;;;;;16.15;9.18;;;5.30;99.90;;;;;;6236465;23;20444;-82
2023/05/04 03:48:00;;;;;;;19.17;8.52;;;5.30;99.90;;;;;;6239053;23;20445;-83
2023/05/04 03:50:26;;;;;;;17.15;9.93;;;5.70;99.90;;;;;;6212526;23;20064;-83
2023/05/04 03:52:52;;;;;;;14.98;8.85;;;5.40;99.90;;;;;;6212155;23;20023;-83
2023/05/04 03:55:18;;;;;;;17.02;9.77;;;5.60;99.90;;;;;;6213205;23;20020;-82
2023/05/04 03:57:43;;;;;;;14.07;8.95;;;5.40;99.90;;;;;;6237746;23;20016;-83
2023/05/04 04:00:10;;;;;;;13.02;9.52;;;5.40;99.90;;;;;;6212749;23;20047;-83
2023/05/04 04:02:36;;;;;;;19.15;9.65;;;5.40;99.90;;;;;;6212711;23;20016;-83
2023/05/04 04:05:02;;;;;;;20.77;9.75;;;5.50;99.90;;;;;;6211790;23;20094;-83
2023/05/04 04:07:27;;;;;;;16.05;9.27;;;5.90;99.90;;;;;;6238015;23;20020;-83
2023/05/04 04:09:53;;;;;;;16.85;8.82;;;6.20;99.90;;;;;;6216562;22;20020;-84
2023/05/04 04:12:19;;;;;;;19.55;10.23;;;5.50;99.90;;;;;;6216805;22;20016;-83
2023/05/04 04:14:47;;;;;;;20.63;9.25;;;5.50;99.90;;;;;;6243877;22;20094;-84
2023/05/04 04:17:13;;;;;;;23.45;10.60;;;5.60;99.90;;;;;;6217183;22;20026;-84
2023/05/04 04:19:39;;;;;;;27.35;10.82;;;5.90;99.90;;;;;;6217314;22;20012;-83
2023/05/04 04:22:05;;;;;;;21.33;10.18;;;6.40;99.90;;;;;;6217221;22;20020;-84
2023/05/04 04:24:31;;;;;;;22.25;9.68;;;5.80;99.90;;;;;;6217995;22;20023;-84
2023/05/04 04:26:56;;;;;;;17.42;9.63;;;5.60;99.90;;;;;;6215747;22;20080;-84
2023/05/04 04:29:22;;;;;;;18.25;9.63;;;6.00;99.90;;;;;;6217956;22;20075;-84
2023/05/04 04:31:48;;;;;;;18.60;9.27;;;6.00;99.90;;;;;;6217169;22;20022;-84
2023/05/04 04:34:14;;;;;;;20.52;10.10;;;6.00;99.90;;;;;;6217041;22;20054;-84
2023/05/04 04:36:39;;;;;;;20.40;9.07;;;6.30;99.90;;;;;;6217246;22;20023;-83
2023/05/04 04:39:05;;;;;;;16.52;9.65;;;6.10;99.90;;;;;;6243886;22;20102;-84
2023/05/04 04:41:31;;;;;;;19.02;9.30;;;5.70;99.90;;;;;;6216049;22;20019;-84
2023/05/04 04:43:58;;;;;;;19.80;9.23;;;5.70;99.90;;;;;;6243949;22;20208;-83
2023/05/04 04:46:24;;;;;;;17.55;8.60;;;5.80;99.90;;;;;;6216420;22;20031;-83
2023/05/04 04:48:51;;;;;;;17.48;9.32;;;5.90;99.90;;;;;;6242613;22;20015;-84
2023/05/04 04:51:17;;;;;;;22.80;9.15;;;6.50;99.90;;;;;;6241950;22;20031;-84
2023/05/04 04:53:42;;;;;;;19.83;8.27;;;6.30;99.90;;;;;;6243222;22;20020;-84
2023/05/04 04:56:08;;;;;;;14.20;8.40;;;5.90;99.90;;;;;;6242693;22;20432;-83
2023/05/04 04:58:34;;;;;;;20.42;8.23;;;6.20;99.90;;;;;;6217155;22;20451;-84
2023/05/04 05:01:03;;;;;;;14.52;8.50;;;6.10;99.90;;;;;;6242769;22;20405;-83
2023/05/04 05:03:29;;;;;;;16.60;8.55;;;6.10;99.90;;;;;;6216722;22;20020;-84
2023/05/04 05:05:54;;;;;;;17.08;8.38;;;6.10;99.90;;;;;;6217731;22;20020;-83
2023/05/04 05:08:20;;;;;;;23.27;8.80;;;6.20;99.90;;;;;;6216696;22;20099;-83
2023/05/04 05:10:46;;;;;;;11.88;7.25;;;6.20;99.90;;;;;;6217192;22;20400;-84
2023/05/04 05:13:12;;;;;;;20.17;8.68;;;6.30;99.90;;;;;;6217591;22;20028;-84
2023/05/04 05:15:37;;;;;;;19.33;8.45;;;6.30;99.90;;;;;;6215729;22;20023;-83
2023/05/04 05:18:03;;;;;;;15.23;8.15;;;6.40;99.90;;;;;;6218079;22;20012;-85
2023/05/04 05:20:29;;;;;;;22.25;8.75;;;6.40;99.90;;;;;;6242300;22;20530;-83
2023/05/04 05:22:55;;;;;;;16.98;8.40;;;6.40;99.90;;;;;;6216416;22;20599;-84
2023/05/04 05:25:20;;;;;;;16.42;8.63;;;6.60;99.90;;;;;;6217266;22;20103;-84
2023/05/04 05:27:46;;;;;;;18.88;9.75;;;7.00;99.90;;;;;;6242575;22;20432;-84
2023/05/04 05:30:12;;;;;;;19.30;9.05;;;6.60;99.90;;;;;;6242188;22;20023;-84
2023/05/04 05:32:38;;;;;;;18.08;8.15;;;6.80;99.90;;;;;;6217139;22;20062;-84
2023/05/04 05:35:05;;;;;;;15.05;7.95;;;7.30;99.90;;;;;;6241893;22;20375;-85
2023/05/04 05:37:31;;;;;;;14.20;8.45;;;6.90;99.90;;;;;;6215899;22;20023;-84
2023/05/04 05:39:57;;;;;;;17.52;8.18;;;6.90;99.90;;;;;;6217284;22;20089;-85
2023/05/04 05:42:23;;;;;;;16.63;8.75;;;6.90;99.90;;;;;;6242383;22;20396;-83
2023/05/04 05:44:49;;;;;;;25.02;8.25;;;7.60;99.90;;;;;;6217275;22;20041;-83
2023/05/04 05:47:16;;;;;;;22.38;9.15;;;7.30;99.90;;;;;;6216371;22;20015;-84
2023/05/04 05:49:41;;;;;;;18.60;7.93;;;7.10;99.90;;;;;;6242565;22;20093;-84
2023/05/04 05:52:07;;;;;;;21.02;8.52;;;7.20;99.90;;;;;;6215645;22;20016;-85
2023/05/04 05:54:34;;;;;;;19.83;8.57;;;7.40;99.90;;;;;;6216902;22;20110;-84
2023/05/04 05:57:00;;;;;;;22.38;8.88;;;8.00;99.90;;;;;;6217214;22;20015;-84
2023/05/04 05:59:26;;;;;;;21.30;8.77;;;7.50;99.90;;;;;;6215910;22;20012;-84
2023/05/04 06:01:52;;;;;;;13.65;7.97;;;7.50;99.90;;;;;;6216560;22;20348;-84
2023/05/04 06:04:17;;;;;;;12.50;7.47;;;7.60;99.90;;;;;;6216954;22;20012;-84
2023/05/04 06:06:43;;;;;;;21.65;8.43;;;8.10;99.90;;;;;;6215593;22;20018;-84
2023/05/04 06:09:09;;;;;;;15.13;8.15;;;7.90;99.90;;;;;;6217864;22;20018;-84
2023/05/04 06:11:35;;;;;;;20.45;8.02;;;8.20;99.90;;;;;;6241584;22;20015;-84
2023/05/04 06:14:01;;;;;;;23.00;8.43;;;8.10;99.90;;;;;;6217594;22;20027;-84
2023/05/04 06:16:27;;;;;;;16.15;7.90;;;8.00;99.90;;;;;;6215426;22;20019;-84
2023/05/04 06:18:52;;;;;;;21.48;8.43;;;8.10;99.90;;;;;;6216684;22;20081;-84
2023/05/04 06:21:18;;;;;;;19.20;8.25;;;8.10;99.90;;;;;;6241662;22;20022;-85
2023/05/04 06:23:44;;;;;;;16.23;7.93;;;8.20;99.90;;;;;;6217338;22;20043;-83
2023/05/04 06:26:10;;;;;;;20.58;7.78;;;8.30;99.90;;;;;;6216517;22;20022;-84
2023/05/04 06:28:36;;;;;;;16.73;7.80;;;8.40;99.90;;;;;;6241845;22;20102;-84
2023/05/04 06:31:02;;;;;;;17.30;6.90;;;8.50;99.90;;;;;;6217016;22;20019;-84
2023/05/04 06:33:28;;;;;;;14.95;7.53;;;8.60;99.90;;;;;;6241293;22;20417;-84
2023/05/04 06:35:54;;;;;;;16.30;6.55;;;8.70;99.90;;;;;;6216989;22;20502;-85
2023/05/04 06:38:20;;;;;;;16.88;7.03;;;8.80;99.90;;;;;;6244737;22;20019;-83
2023/05/04 06:40:46;;;;;;;15.18;6.68;;;8.90;99.90;;;;;;6242910;22;20015;-84
2023/05/04 06:43:11;;;;;;;17.95;7.15;;;8.90;99.90;;;;;;6219270;22;20035;-84
2023/05/04 06:45:38;;;;;;;13.15;6.10;;;9.00;99.90;;;;;;6241627;22;20016;-82
2023/05/04 06:48:04;;;;;;;14.13;6.47;;;9.00;99.90;;;;;;6216295;22;20019;-84
2023/05/04 06:50:32;;;;;;;19.38;6.50;;;9.10;99.90;;;;;;6216770;22;20047;-82
2023/05/04 06:53:04;;;;;;;15.80;6.22;;;9.10;99.90;;;;;;6218098;22;20023;-84
2023/05/04 06:55:30;;;;;;;18.92;6.20;;;9.40;99.90;;;;;;6216643;22;20016;-84
2023/05/04 06:57:56;;;;;;;22.33;6.75;;;9.30;99.90;;;;;;6242861;22;20027;-83
2023/05/04 07:00:22;;;;;;;15.77;6.53;;;9.30;99.90;;;;;;6216693;22;20019;-82
2023/05/04 07:02:48;;;;;;;21.65;6.22;;;9.30;99.90;;;;;;6215413;22;20029;-83
2023/05/04 07:05:14;;;;;;;18.40;6.03;;;9.40;99.90;;;;;;6216619;22;20410;-84
2023/05/04 07:07:40;;;;;;;17.17;6.53;;;9.40;99.90;;;;;;6217445;22;20317;-83
2023/05/04 07:10:06;;;;;;;15.23;5.95;;;9.50;99.90;;;;;;6212668;23;20025;-85
2023/05/04 07:12:31;;;;;;;20.45;6.78;;;9.50;99.90;;;;;;6213801;23;20042;-85
2023/05/04 07:14:57;;;;;;;15.73;6.30;;;9.50;99.90;;;;;;6212313;23;20016;-85
2023/05/04 07:17:24;;;;;;;11.27;5.45;;;9.60;99.90;;;;;;6213218;23;20016;-85
2023/05/04 07:19:52;;;;;;;18.63;6.25;;;9.70;99.90;;;;;;6213842;23;20766;-85
2023/05/04 07:22:19;;;;;;;15.95;6.22;;;9.80;99.90;;;;;;6212256;23;20028;-85
2023/05/04 07:24:45;;;;;;;18.02;6.15;;;9.90;99.90;;;;;;6214220;23;20012;-84
2023/05/04 07:27:11;;;;;;;18.13;6.15;;;10.00;99.90;;;;;;6212512;23;20063;-85
2023/05/04 07:29:37;;;;;;;13.45;6.38;;;10.10;99.90;;;;;;6237818;23;20449;-84
2023/05/04 07:32:02;;;;;;;16.63;5.97;;;10.20;99.90;;;;;;6212407;23;20032;-84
2023/05/04 07:34:28;;;;;;;15.68;6.38;;;10.30;99.90;;;;;;6212880;23;20024;-84
2023/05/04 07:36:54;;;;;;;17.33;6.47;;;10.30;99.90;;;;;;6237437;23;20121;-85
2023/05/04 07:39:19;;;;;;;19.08;6.00;;;10.40;99.90;;;;;;6211643;23;20336;-84
2023/05/04 07:41:45;;;;;;;33.17;6.05;;;10.50;99.90;;;;;;6238619;23;20424;-84
2023/05/04 07:44:11;;;;;;;14.50;5.95;;;10.50;99.90;;;;;;6211843;23;20096;-84
2023/05/04 07:46:37;;;;;;;19.25;5.80;;;10.60;99.90;;;;;;6212228;23;20449;-85
2023/05/04 07:49:03;;;;;;;15.40;6.10;;;10.60;99.90;;;;;;6213585;23;20245;-86
2023/05/04 07:51:29;;;;;;;19.38;6.80;;;10.60;99.90;;;;;;6236086;23;20099;-85
2023/05/04 07:53:55;;;;;;;15.48;6.55;;;10.70;99.90;;;;;;6239028;23;20020;-85
2023/05/04 07:56:21;;;;;;;14.23;6.05;;;10.70;99.90;;;;;;6211997;23;20783;-85
2023/05/04 07:58:46;;;;;;;11.70;6.30;;;10.80;99.90;;;;;;6212717;23;20042;-85
2023/05/04 08:01:12;;;;;;;17.25;6.45;;;10.90;99.90;;;;;;6237824;23;20103;-85
2023/05/04 08:03:38;;;;;;;15.60;6.65;;;11.00;99.90;;;;;;6237924;23;20013;-85
2023/05/04 08:06:04;;;;;;;11.88;5.80;;;11.10;99.90;;;;;;6237117;23;20024;-85
2023/05/04 08:08:29;;;;;;;16.00;6.53;;;11.20;99.90;;;;;;6237666;23;20035;-85
2023/05/04 08:10:55;;;;;;;14.50;6.28;;;11.30;99.90;;;;;;6213043;23;20333;-84
2023/05/04 08:13:21;;;;;;;16.88;6.15;;;11.30;99.90;;;;;;6211763;23;20016;-85
2023/05/04 08:15:47;;;;;;;13.30;6.20;;;11.40;99.90;;;;;;6237369;23;20035;-85
2023/05/04 08:18:13;;;;;;;19.98;6.75;;;11.60;99.90;;;;;;6212112;23;20295;-85
2023/05/04 08:20:39;;;;;;;17.35;6.57;;;11.70;99.90;;;;;;6212233;23;20016;-85
2023/05/04 08:23:06;;;;;;;23.00;6.68;;;11.80;99.90;;;;;;6213406;23;20020;-85
2023/05/04 08:25:31;;;;;;;11.38;6.07;;;12.00;99.90;;;;;;6211799;23;20341;-86
2023/05/04 08:27:57;;;;;;;14.90;5.53;;;12.00;99.90;;;;;;6212545;23;20020;-84
2023/05/04 08:30:23;;;;;;;16.52;5.97;;;12.20;99.90;;;;;;6212644;23;20649;-86
2023/05/04 08:32:51;;;;;;;13.07;5.40;;;12.30;99.90;;;;;;6211200;23;20019;-85
2023/05/04 08:35:17;;;;;;;14.23;5.65;;;12.30;99.90;;;;;;6212282;23;20024;-85
2023/05/04 08:37:43;;;;;;;12.73;5.72;;;12.40;99.90;;;;;;6212592;23;20036;-85
2023/05/04 08:40:09;;;;;;;14.77;5.60;;;12.50;99.90;;;;;;6237513;23;20101;-85
2023/05/04 08:42:35;;;;;;;13.40;5.07;;;12.60;99.90;;;;;;6212692;23;20103;-86
2023/05/04 08:45:00;;;;;;;12.88;5.50;;;12.70;99.90;;;;;;6212725;23;20016;-86
2023/05/04 08:47:27;;;;;;;11.07;4.70;;;12.80;99.90;;;;;;6236088;23;20024;-86
2023/05/04 08:49:55;;;;;;;10.38;5.53;;;13.00;99.90;;;;;;6213170;23;20389;-85
2023/05/04 08:52:24;;;;;;;14.77;5.38;;;13.10;99.90;;;;;;6237037;23;20007;-85
2023/05/04 08:54:54;;;;;;;12.95;5.65;;;13.10;99.90;;;;;;6211958;23;20019;-86
2023/05/04 08:57:22;;;;;;;9.35;4.50;;;13.20;99.90;;;;;;6212844;23;20047;-86
2023/05/04 08:59:50;;;;;;;16.90;5.70;;;13.40;99.90;;;;;;6213029;23;20034;-86
2023/05/04 09:02:20;;;;;;;11.35;4.90;;;13.50;99.90;;;;;;6236568;23;20344;-85
2023/05/04 09:04:45;;;;;;;13.13;4.82;;;13.70;99.90;;;;;;6212649;23;20008;-86
2023/05/04 09:07:11;;;;;;;15.73;5.35;;;13.80;99.90;;;;;;6212379;23;20449;-86
2023/05/04 09:09:37;;;;;;;9.88;4.75;;;13.90;99.90;;;;;;6212392;22;20012;-86
2023/05/04 09:12:03;;;;;;;13.50;4.50;;;14.10;99.90;;;;;;6217547;22;20030;-86
2023/05/04 09:14:34;;;;;;;16.88;4.88;;;14.20;99.90;;;;;;6217165;22;20304;-86
2023/05/04 09:17:02;;;;;;;12.02;5.32;;;14.30;99.90;;;;;;6216759;22;20016;-87
2023/05/04 09:19:32;;;;;;;13.52;4.47;;;14.40;99.90;;;;;;6242747;22;20651;-86
2023/05/04 09:22:00;;;;;;;9.88;4.53;;;14.50;99.90;;;;;;6216000;22;20100;-86
2023/05/04 09:24:27;;;;;;;12.82;4.32;;;14.60;99.90;;;;;;6217755;22;20805;-86
2023/05/04 09:26:52;;;;;;;27.77;4.85;;;14.80;99.90;;;;;;6242034;22;20024;-85
2023/05/04 09:29:18;;;;;;;8.70;4.40;;;14.80;99.90;;;;;;6216830;22;20110;-85
2023/05/04 09:31:47;;;;;;;13.70;4.85;;;14.80;99.90;;;;;;6216326;22;20438;-86
2023/05/04 09:34:13;;;;;;;11.95;4.60;;;14.90;99.90;;;;;;6217664;22;20471;-84
2023/05/04 09:36:40;;;;;;;199.02;11.02;;;14.90;99.90;;;;;;6215929;22;20415;-86
2023/05/04 09:39:12;;;;;;;96.43;7.75;;;14.80;99.90;;;;;;6243080;22;20012;-86
2023/05/04 09:41:37;;;;;;;32.28;6.13;;;14.90;99.90;;;;;;6217454;22;20352;-86
2023/05/04 09:44:03;;;;;;;11.20;4.57;;;15.00;99.90;;;;;;6216493;22;20442;-86
2023/05/04 09:46:29;;;;;;;28.17;5.57;;;15.10;99.90;;;;;;6216344;22;20499;-85
2023/05/04 09:48:55;;;;;;;13.27;4.20;;;15.20;99.90;;;;;;6217132;22;20467;-85
2023/05/04 09:51:26;;;;;;;37.92;5.30;;;15.40;99.90;;;;;;6216023;22;20023;-86
2023/05/04 09:53:52;;;;;;;13.18;4.80;;;15.60;99.90;;;;;;6242651;22;20106;-85
2023/05/04 09:56:31;;;;;;;11.30;4.03;;;15.70;99.90;;;;;;6217512;22;20015;-86
2023/05/04 09:58:58;;;;;;;12.45;3.58;;;15.80;99.90;;;;;;6220526;22;20047;-91
2023/05/04 10:01:52;;;;;;;139.35;11.82;;;15.90;99.90;;;;;;6220771;22;20015;-91
2023/05/04 10:04:19;;;;;;;12.40;3.80;;;16.10;99.90;;;;;;6217082;22;20012;-90
2023/05/04 10:06:45;;;;;;;14.38;4.53;;;16.20;99.90;;;;;;6220713;22;20294;-90
2023/05/04 10:09:12;;;;;;;20.45;4.45;;;16.20;99.90;;;;;;6219657;22;20019;-91
2023/05/04 10:11:38;;;;;;;12.32;4.20;;;16.30;99.90;;;;;;6218416;22;20019;-90
2023/05/04 10:14:04;;;;;;;10.98;3.92;;;16.30;99.90;;;;;;6219726;22;20016;-91
2023/05/04 10:16:46;;;;;;;9.63;3.70;;;16.30;99.90;;;;;;6219482;22;20106;-90
2023/05/04 10:19:19;;;;;;;8.97;3.57;;;16.40;99.90;;;;;;6218712;22;20039;-90
2023/05/04 10:21:51;;;;;;;;;;;16.40;99.90;;;;;;6219977;22;20065;-90
2023/05/04 10:24:20;;;;;;;12.40;4.03;;;16.40;99.90;;;;;;6220102;22;19946;-90
2023/05/04 10:26:50;;;;;;;10.98;3.40;;;16.50;99.90;;;;;;6219049;22;20444;-90
2023/05/04 10:29:24;;;;;;;11.80;3.63;;;16.70;99.90;;;;;;6219879;22;20078;-90
2023/05/04 10:31:52;;;;;;;15.20;4.85;;;16.80;99.90;;;;;;6219136;22;20016;-90
2023/05/04 10:34:30;;;;;;;28.65;4.20;;;16.80;99.90;;;;;;6220122;22;20026;-90
2023/05/04 10:36:57;;;;;;;13.68;3.75;;;16.90;99.90;;;;;;6219793;22;20019;-91
2023/05/04 10:39:26;;;;;;;8.65;3.33;;;16.80;99.90;;;;;;6218254;22;20019;-93
2023/05/04 10:41:58;;;;;;;12.68;3.80;;;16.70;99.90;;;;;;6219645;22;20034;-91
2023/05/04 10:44:24;;;;;;;8.52;3.92;;;16.70;99.90;;;;;;6219065;22;20103;-91
2023/05/04 10:47:01;;;;;;;9.88;4.40;;;16.90;99.90;;;;;;6220574;22;20440;-93
2023/05/04 10:49:27;;;;;;;8.40;3.72;;;16.90;99.90;;;;;;6219653;22;20016;-94
2023/05/04 10:52:05;;;;;;;13.30;3.85;;;17.00;99.90;;;;;;6220231;22;20038;-92
2023/05/04 10:54:30;;;;;;;10.43;4.28;;;17.20;99.90;;;;;;6219409;22;20026;-91
2023/05/04 10:57:02;;;;;;;11.15;3.72;;;17.30;99.90;;;;;;6224314;22;20091;-91
2023/05/04 10:59:28;;;;;;;11.25;3.60;;;17.30;99.90;;;;;;6220264;22;20012;-93
2023/05/04 11:01:54;;;;;;;9.23;3.90;;;17.30;99.90;;;;;;6219136;22;20022;-92
2023/05/04 11:04:21;;;;;;;15.30;4.13;;;17.30;99.90;;;;;;6220060;22;20016;-92
2023/05/04 11:07:04;;;;;;;9.27;4.00;;;17.40;99.90;;;;;;6219051;22;20320;-94
2023/05/04 11:09:37;;;;;;;13.43;3.95;;;17.40;99.90;;;;;;6219832;22;20024;-91
2023/05/04 11:12:03;;;;;;;16.88;4.25;;;17.60;99.90;;;;;;6219864;22;20569;-93
2023/05/04 11:14:29;;;;;;;11.57;3.97;;;17.70;99.90;;;;;;6218798;22;20024;-90
2023/05/04 11:17:09;;;;;;;11.38;3.67;;;17.80;99.90;;;;;;6219910;22;20015;-91
2023/05/04 11:19:35;;;;;;;14.43;4.78;;;17.80;99.90;;;;;;6220186;22;20038;-92
2023/05/04 11:22:01;;;;;;;9.95;3.80;;;17.70;99.90;;;;;;6220604;22;20008;-92
2023/05/04 11:24:44;;;;;;;10.88;4.30;;;17.70;99.90;;;;;;6221696;22;20011;-92
2023/05/04 11:27:21;;;;;;;17.57;4.20;;;17.70;99.90;;;;;;6221429;22;20015;-90
2023/05/04 11:30:03;;;;;;;9.10;3.47;;;17.80;99.90;;;;;;6221020;22;20058;-93
2023/05/04 11:32:41;;;;;;;11.85;3.65;;;17.90;99.90;;;;;;6220916;22;20015;-91
2023/05/04 11:35:13;;;;;;;9.38;3.78;;;18.10;99.90;;;;;;6221360;22;20026;-93
2023/05/04 11:37:41;;;;;;;14.27;3.67;;;18.20;99.90;;;;;;6221476;22;20024;-91
2023/05/04 11:40:09;;;;;;;11.15;3.83;;;18.30;99.90;;;;;;6220928;22;20016;-91
2023/05/04 11:42:42;;;;;;;14.88;3.92;;;18.40;99.90;;;;;;6221173;22;20031;-93
2023/05/04 11:45:13;;;;;;;12.32;4.30;;;18.40;99.90;;;;;;6219164;22;20016;-94
2023/05/04 11:47:39;;;;;;;12.77;3.60;;;18.50;99.90;;;;;;6221021;22;20016;-91
2023/05/04 11:50:08;;;;;;;10.20;3.70;;;18.60;99.90;;;;;;6220273;22;20012;-92
2023/05/04 11:52:35;;;;;;;15.77;3.80;;;18.60;99.90;;;;;;6221368;22;20026;-93
2023/05/04 12:01:19;;;;;;;8.80;3.60;;;18.70;99.90;;;;;;6217762;22;20023;-90
2023/05/04 12:03:53;;;;;;;10.82;4.05;;;18.70;99.90;;;;;;6217374;22;20074;-89
2023/05/04 12:06:31;;;;;;;11.65;3.97;;;18.60;99.90;;;;;;6220779;22;20011;-94
2023/05/04 12:09:03;;;;;;;13.35;4.13;;;18.60;99.90;;;;;;6221347;22;20018;-89
2023/05/04 12:11:28;;;;;;;10.50;3.63;;;18.70;99.90;;;;;;6213794;23;20020;-91
2023/05/04 12:14:05;;;;;;;12.77;3.90;;;18.70;99.90;;;;;;6215347;23;20063;-90
2023/05/04 12:16:30;;;;;;;13.23;4.25;;;18.70;99.90;;;;;;6215148;23;20023;-93
2023/05/04 12:19:05;;;;;;;11.32;4.50;;;18.70;99.90;;;;;;6215185;23;20016;-95
2023/05/04 12:21:32;;;;;;;11.13;4.05;;;18.70;99.90;;;;;;6215738;23;20035;-91
2023/05/04 12:23:59;;;;;;;12.40;4.20;;;18.80;99.90;;;;;;6216617;23;20019;-94
2023/05/04 12:26:25;;;;;;;10.38;4.13;;;18.90;99.90;;;;;;6215049;23;20020;-92
2023/05/04 12:28:51;;;;;;;11.43;4.40;;;18.90;99.90;;;;;;6216626;23;20449;-93
2023/05/04 12:31:17;;;;;;;10.90;4.15;;;18.80;99.90;;;;;;6215298;23;20035;-94
2023/05/04 12:33:44;;;;;;;9.50;3.83;;;18.90;99.90;;;;;;6215818;23;20016;-94
2023/05/04 12:36:10;;;;;;;19.95;4.78;;;18.90;99.90;;;;;;6215769;23;20027;-94
2023/05/04 12:38:37;;;;;;;11.13;4.28;;;18.90;99.90;;;;;;6214392;23;20020;-92
2023/05/04 12:41:03;;;;;;;14.80;4.07;;;18.90;99.50;;;;;;6216266;23;20062;-94
2023/05/04 12:43:31;;;;;;;10.48;3.88;;;18.90;99.90;;;;;;6216106;23;20018;-94
2023/05/04 12:45:57;;;;;;;18.95;4.00;;;19.00;99.50;;;;;;6214973;23;20020;-94
2023/05/04 12:48:27;;;;;;;13.48;3.85;;;19.00;99.60;;;;;;6216131;23;20445;-94